Cookies

Um unseren Internetauftritt benutzerfreundlich zu gestalten und optimal auf Ihre Bedürfnisse abzustimmen, setzen wir in einigen Bereichen Cookies ein. "Cookies" sind kleine Textdateien, die lokal auf der Festplatte Ihres Computers abgelegt und für einen späteren Abruf bereitgehalten werden und die die Benutzung unserer Online-Angebote erleichtern. Nach Beendigung Ihres Besuchs und Beenden des von Ihnen verwendeten Internetbrowsers werden Cookies automatisch gelöscht.

Bei der Nutzung unserer Internetseiten verwenden wir Cookies außerdem, um eine Analyse der Benutzung der Internetseiten durch Sie zu ermöglichen (Web-Tracking). Die durch den Cookie erzeugten Informationen über Ihre Benutzung unseres Internetangebotes (benutzte Suchmaschinen, verwendete Suchbegriffe, verwendete Sprachen, Herkunft der Besucher nach Ländern, verwendete Browser und ihre Plugins, die Referrer, die Aufenthaltsdauer, Einstiegs- und Ausstiegsseiten, Abbruchquoten, IP-Adresse) werden ausschließlich anonym und nur zu statistischen Zwecken verwendet. Diese Informationen werden getrennt von personenbezogenen Daten verwendet und nicht mit diesen zusammengeführt; sie lassen daher keine Rückschlüsse auf personenbezogenen Daten zu.

Die Einwilligung oder Ablehnung von Cookies - auch zum Web-Tracking - können Sie über die Einstellungen Ihres Webbrowsers erklären. Sie können Ihren Webbrowser so einstellen, dass er Sie beim Setzen von Cookies benachrichtigt oder Cookies generell ablehnt. Allerdings können Sie dann nicht mehr alle Funktionen unserer Website nutzen. Über die folgenden Links können Sie sich über diese Möglichkeit für die am meisten verwendeten Browser informieren: Microsoft EDGE, Firefox, Google Chrome, Safari, Opera.

 

Flugwetter Augsburg

[source: ADDS]
METAR
EDMA 240850Z 09007KT 360V110 9999 BKN009 OVC011 05/03 Q1027 =
TAF EDMA 240800Z 2409/2418 10005KT 9999 OVC010 TEMPO 2409/2412 OVC008 BECMG 2416/2418 4000 BR OVC006
TAF
TAF EDMA 240800Z 2409/2418 10005KT 9999 OVC010 TEMPO 2409/2412 OVC008 BECMG 2416/2418 4000 BR OVC006 =
Cookies erleichtern die Bereitstellung unserer Dienste. Mit der Nutzung unserer Dienste erklären Sie sich damit einverstanden, dass wir Cookies verwenden.
Weitere Informationen Ok